sensor_id;sensor_type;location;lat;lon;timestamp;temperature;humidity
59015;DHT22;44799;53.382;14.666;2023-04-03T00:03:50;0.50;99.90
59015;DHT22;44799;53.382;14.666;2023-04-03T00:06:17;1.00;99.90
59015;DHT22;44799;53.382;14.666;2023-04-03T00:08:42;3.10;99.90
59015;DHT22;44799;53.382;14.666;2023-04-03T00:13:35;3.20;99.90
59015;DHT22;44799;53.382;14.666;2023-04-03T00:16:00;1.60;99.90
59015;DHT22;44799;53.382;14.666;2023-04-03T00:18:27;-0.20;99.90
59015;DHT22;44799;53.382;14.666;2023-04-03T00:20:52;1.70;99.90
59015;DHT22;44799;53.382;14.666;2023-04-03T00:23:18;0.40;99.90
59015;DHT22;44799;53.382;14.666;2023-04-03T00:25:44;3.10;99.90
59015;DHT22;44799;53.382;14.666;2023-04-03T00:28:09;2.50;99.90
59015;DHT22;44799;53.382;14.666;2023-04-03T00:30:35;2.90;99.90
59015;DHT22;44799;53.382;14.666;2023-04-03T00:33:01;1.70;99.90
59015;DHT22;44799;53.382;14.666;2023-04-03T00:35:27;-0.50;99.90
59015;DHT22;44799;53.382;14.666;2023-04-03T00:37:53;1.40;99.90
59015;DHT22;44799;53.382;14.666;2023-04-03T00:40:19;-0.50;99.90
59015;DHT22;44799;53.382;14.666;2023-04-03T00:42:46;2.90;99.90
59015;DHT22;44799;53.382;14.666;2023-04-03T00:45:22;2.00;99.90
59015;DHT22;44799;53.382;14.666;2023-04-03T00:47:48;0.90;99.90
59015;DHT22;44799;53.382;14.666;2023-04-03T00:50:14;3.00;99.90
59015;DHT22;44799;53.382;14.666;2023-04-03T00:52:40;2.40;99.90
59015;DHT22;44799;53.382;14.666;2023-04-03T00:55:07;1.60;99.90
59015;DHT22;44799;53.382;14.666;2023-04-03T00:57:33;-0.20;99.90
59015;DHT22;44799;53.382;14.666;2023-04-03T01:00:07;1.10;99.90
59015;DHT22;44799;53.382;14.666;2023-04-03T01:05:00;0.00;99.90
59015;DHT22;44799;53.382;14.666;2023-04-03T01:07:27;1.90;99.90
59015;DHT22;44799;53.382;14.666;2023-04-03T01:12:21;0.70;99.90
59015;DHT22;44799;53.382;14.666;2023-04-03T01:14:51;-0.90;99.90
59015;DHT22;44799;53.382;14.666;2023-04-03T01:17:51;2.30;99.90
59015;DHT22;44799;53.382;14.666;2023-04-03T01:22:48;2.80;99.90
59015;DHT22;44799;53.382;14.666;2023-04-03T01:27:43;0.40;99.90
59015;DHT22;44799;53.382;14.666;2023-04-03T01:30:09;1.30;99.90
59015;DHT22;44799;53.382;14.666;2023-04-03T01:32:35;-0.10;99.90
59015;DHT22;44799;53.382;14.666;2023-04-03T01:35:01;2.70;99.90
59015;DHT22;44799;53.382;14.666;2023-04-03T01:37:27;1.60;99.90
59015;DHT22;44799;53.382;14.666;2023-04-03T01:39:52;2.00;99.90
59015;DHT22;44799;53.382;14.666;2023-04-03T01:42:18;2.60;99.90
59015;DHT22;44799;53.382;14.666;2023-04-03T01:44:43;1.30;99.90
59015;DHT22;44799;53.382;14.666;2023-04-03T01:47:10;1.80;99.90
59015;DHT22;44799;53.382;14.666;2023-04-03T01:49:36;-1.10;99.90
59015;DHT22;44799;53.382;14.666;2023-04-03T01:52:01;2.40;99.90
59015;DHT22;44799;53.382;14.666;2023-04-03T01:54:27;2.40;99.90
59015;DHT22;44799;53.382;14.666;2023-04-03T01:56:53;0.00;99.90
59015;DHT22;44799;53.382;14.666;2023-04-03T01:59:18;2.40;99.90
59015;DHT22;44799;53.382;14.666;2023-04-03T02:01:44;-0.20;99.90
59015;DHT22;44799;53.382;14.666;2023-04-03T02:06:36;2.00;99.90
59015;DHT22;44799;53.382;14.666;2023-04-03T02:09:02;1.40;99.90
59015;DHT22;44799;53.382;14.666;2023-04-03T02:11:28;1.40;99.90
59015;DHT22;44799;53.382;14.666;2023-04-03T02:13:53;2.20;99.90
59015;DHT22;44799;53.382;14.666;2023-04-03T02:16:19;2.10;99.90
59015;DHT22;44799;53.382;14.666;2023-04-03T02:18:44;0.50;99.90
59015;DHT22;44799;53.382;14.666;2023-04-03T02:21:10;0.20;99.90
59015;DHT22;44799;53.382;14.666;2023-04-03T02:26:03;2.60;99.90
59015;DHT22;44799;53.382;14.666;2023-04-03T02:28:28;2.30;99.90
59015;DHT22;44799;53.382;14.666;2023-04-03T02:30:54;2.10;99.90
59015;DHT22;44799;53.382;14.666;2023-04-03T02:33:20;1.30;99.90
59015;DHT22;44799;53.382;14.666;2023-04-03T02:35:46;-0.80;99.90
59015;DHT22;44799;53.382;14.666;2023-04-03T02:38:18;2.60;99.90
59015;DHT22;44799;53.382;14.666;2023-04-03T02:40:43;0.00;99.90
59015;DHT22;44799;53.382;14.666;2023-04-03T02:43:09;0.00;99.90
59015;DHT22;44799;53.382;14.666;2023-04-03T02:48:01;1.20;99.90
59015;DHT22;44799;53.382;14.666;2023-04-03T02:50:27;1.30;99.90
59015;DHT22;44799;53.382;14.666;2023-04-03T02:55:18;1.90;99.90
59015;DHT22;44799;53.382;14.666;2023-04-03T02:57:44;0.90;99.90
59015;DHT22;44799;53.382;14.666;2023-04-03T03:00:09;0.90;99.90
59015;DHT22;44799;53.382;14.666;2023-04-03T03:02:35;2.40;99.90
59015;DHT22;44799;53.382;14.666;2023-04-03T03:05:01;1.50;99.90
59015;DHT22;44799;53.382;14.666;2023-04-03T03:07:27;1.00;99.90
59015;DHT22;44799;53.382;14.666;2023-04-03T03:09:52;1.40;99.90
59015;DHT22;44799;53.382;14.666;2023-04-03T03:19:40;0.40;99.90
59015;DHT22;44799;53.382;14.666;2023-04-03T03:22:06;1.90;99.90
59015;DHT22;44799;53.382;14.666;2023-04-03T03:24:32;0.80;99.90
59015;DHT22;44799;53.382;14.666;2023-04-03T03:26:57;1.40;99.90
59015;DHT22;44799;53.382;14.666;2023-04-03T03:34:15;2.20;99.90
59015;DHT22;44799;53.382;14.666;2023-04-03T03:36:40;0.90;99.90
59015;DHT22;44799;53.382;14.666;2023-04-03T03:39:06;1.90;99.90
59015;DHT22;44799;53.382;14.666;2023-04-03T03:41:32;1.90;99.90
59015;DHT22;44799;53.382;14.666;2023-04-03T03:48:49;2.50;99.90
59015;DHT22;44799;53.382;14.666;2023-04-03T03:51:15;0.70;99.90
59015;DHT22;44799;53.382;14.666;2023-04-03T03:53:41;2.00;99.90
59015;DHT22;44799;53.382;14.666;2023-04-03T03:58:32;0.90;99.90
59015;DHT22;44799;53.382;14.666;2023-04-03T04:01:02;2.30;99.90
59015;DHT22;44799;53.382;14.666;2023-04-03T04:03:27;2.10;99.90
59015;DHT22;44799;53.382;14.666;2023-04-03T04:05:53;1.00;99.90
59015;DHT22;44799;53.382;14.666;2023-04-03T04:10:45;-1.50;99.90
59015;DHT22;44799;53.382;14.666;2023-04-03T04:13:10;1.80;99.90
59015;DHT22;44799;53.382;14.666;2023-04-03T04:15:36;0.30;99.90
59015;DHT22;44799;53.382;14.666;2023-04-03T04:18:02;0.90;99.90
59015;DHT22;44799;53.382;14.666;2023-04-03T04:20:27;0.40;99.90
59015;DHT22;44799;53.382;14.666;2023-04-03T04:22:53;0.40;99.90
59015;DHT22;44799;53.382;14.666;2023-04-03T04:25:19;2.10;99.90
59015;DHT22;44799;53.382;14.666;2023-04-03T04:30:10;-1.50;99.90
59015;DHT22;44799;53.382;14.666;2023-04-03T04:32:36;1.80;99.90
59015;DHT22;44799;53.382;14.666;2023-04-03T04:35:02;0.70;99.90
59015;DHT22;44799;53.382;14.666;2023-04-03T04:37:29;-1.00;99.90
59015;DHT22;44799;53.382;14.666;2023-04-03T04:39:55;2.30;99.90
59015;DHT22;44799;53.382;14.666;2023-04-03T04:42:20;0.80;99.90
59015;DHT22;44799;53.382;14.666;2023-04-03T04:44:46;0.80;99.90
59015;DHT22;44799;53.382;14.666;2023-04-03T04:47:11;-1.20;99.90
59015;DHT22;44799;53.382;14.666;2023-04-03T04:56:55;1.30;99.90
59015;DHT22;44799;53.382;14.666;2023-04-03T05:01:47;1.40;99.90
59015;DHT22;44799;53.382;14.666;2023-04-03T05:04:12;2.00;99.90
59015;DHT22;44799;53.382;14.666;2023-04-03T05:06:39;2.20;99.90
59015;DHT22;44799;53.382;14.666;2023-04-03T05:09:04;1.90;99.90
59015;DHT22;44799;53.382;14.666;2023-04-03T05:11:30;-0.50;99.90
59015;DHT22;44799;53.382;14.666;2023-04-03T05:13:56;0.30;99.90
59015;DHT22;44799;53.382;14.666;2023-04-03T05:16:22;2.30;99.90
59015;DHT22;44799;53.382;14.666;2023-04-03T05:18:47;2.10;99.90
59015;DHT22;44799;53.382;14.666;2023-04-03T05:23:39;1.80;99.90
59015;DHT22;44799;53.382;14.666;2023-04-03T05:26:04;2.00;99.90
59015;DHT22;44799;53.382;14.666;2023-04-03T05:28:31;-0.30;99.90
59015;DHT22;44799;53.382;14.666;2023-04-03T05:30:57;1.80;99.90
59015;DHT22;44799;53.382;14.666;2023-04-03T05:33:23;2.50;99.90
59015;DHT22;44799;53.382;14.666;2023-04-03T05:38:15;1.30;99.90
59015;DHT22;44799;53.382;14.666;2023-04-03T05:40:41;1.50;99.90
59015;DHT22;44799;53.382;14.666;2023-04-03T05:43:07;1.60;99.90
59015;DHT22;44799;53.382;14.666;2023-04-03T05:45:33;2.70;99.90
59015;DHT22;44799;53.382;14.666;2023-04-03T05:47:58;2.40;99.90
59015;DHT22;44799;53.382;14.666;2023-04-03T05:50:24;2.40;99.90
59015;DHT22;44799;53.382;14.666;2023-04-03T05:52:49;1.00;99.90
59015;DHT22;44799;53.382;14.666;2023-04-03T05:55:17;2.60;99.90
59015;DHT22;44799;53.382;14.666;2023-04-03T06:00:11;3.40;99.90
59015;DHT22;44799;53.382;14.666;2023-04-03T06:02:37;0.50;99.90
59015;DHT22;44799;53.382;14.666;2023-04-03T06:05:03;2.70;99.90
59015;DHT22;44799;53.382;14.666;2023-04-03T06:07:29;3.40;99.90
59015;DHT22;44799;53.382;14.666;2023-04-03T06:09:55;1.70;99.90
59015;DHT22;44799;53.382;14.666;2023-04-03T06:14:47;0.80;99.90
59015;DHT22;44799;53.382;14.666;2023-04-03T06:17:14;2.70;99.90
59015;DHT22;44799;53.382;14.666;2023-04-03T06:19:40;0.40;99.90
59015;DHT22;44799;53.382;14.666;2023-04-03T06:22:06;3.20;99.90
59015;DHT22;44799;53.382;14.666;2023-04-03T06:24:32;3.30;99.90
59015;DHT22;44799;53.382;14.666;2023-04-03T06:29:24;3.30;99.90
59015;DHT22;44799;53.382;14.666;2023-04-03T06:31:50;2.20;99.90
59015;DHT22;44799;53.382;14.666;2023-04-03T06:34:16;1.90;99.90
59015;DHT22;44799;53.382;14.666;2023-04-03T06:39:17;3.50;99.90
59015;DHT22;44799;53.382;14.666;2023-04-03T06:41:44;2.70;99.90
59015;DHT22;44799;53.382;14.666;2023-04-03T06:44:10;1.80;99.90
59015;DHT22;44799;53.382;14.666;2023-04-03T06:46:41;3.40;99.90
59015;DHT22;44799;53.382;14.666;2023-04-03T06:56:25;3.60;99.90
59015;DHT22;44799;53.382;14.666;2023-04-03T07:01:19;3.60;99.90
59015;DHT22;44799;53.382;14.666;2023-04-03T07:03:46;2.90;99.90
59015;DHT22;44799;53.382;14.666;2023-04-03T07:06:13;3.00;99.90
59015;DHT22;44799;53.382;14.666;2023-04-03T07:08:39;1.10;99.90
59015;DHT22;44799;53.382;14.666;2023-04-03T07:11:05;2.70;99.90
59015;DHT22;44799;53.382;14.666;2023-04-03T07:15:58;4.40;99.90
59015;DHT22;44799;53.382;14.666;2023-04-03T07:18:24;4.10;99.90
59015;DHT22;44799;53.382;14.666;2023-04-03T07:20:49;3.40;99.90
59015;DHT22;44799;53.382;14.666;2023-04-03T07:25:44;3.90;99.90
59015;DHT22;44799;53.382;14.666;2023-04-03T07:28:11;4.10;99.90
59015;DHT22;44799;53.382;14.666;2023-04-03T07:30:44;4.20;99.90
59015;DHT22;44799;53.382;14.666;2023-04-03T07:35:38;0.90;99.90
59015;DHT22;44799;53.382;14.666;2023-04-03T07:38:04;3.10;99.90
59015;DHT22;44799;53.382;14.666;2023-04-03T07:40:30;0.70;99.90
59015;DHT22;44799;53.382;14.666;2023-04-03T07:42:56;3.80;99.90
59015;DHT22;44799;53.382;14.666;2023-04-03T07:45:22;0.80;99.90
59015;DHT22;44799;53.382;14.666;2023-04-03T07:47:48;4.50;99.90
59015;DHT22;44799;53.382;14.666;2023-04-03T07:50:13;4.10;99.90
59015;DHT22;44799;53.382;14.666;2023-04-03T07:52:39;1.40;99.90
59015;DHT22;44799;53.382;14.666;2023-04-03T07:55:05;4.10;99.90
59015;DHT22;44799;53.382;14.666;2023-04-03T07:57:31;4.10;99.90
59015;DHT22;44799;53.382;14.666;2023-04-03T07:59:57;3.30;99.90
59015;DHT22;44799;53.382;14.666;2023-04-03T08:02:22;4.30;99.90
59015;DHT22;44799;53.382;14.666;2023-04-03T08:04:48;4.30;99.90
59015;DHT22;44799;53.382;14.666;2023-04-03T08:07:14;3.70;99.90
59015;DHT22;44799;53.382;14.666;2023-04-03T08:09:39;3.10;99.90
59015;DHT22;44799;53.382;14.666;2023-04-03T08:12:05;2.90;99.90
59015;DHT22;44799;53.382;14.666;2023-04-03T08:14:31;1.80;99.90
59015;DHT22;44799;53.382;14.666;2023-04-03T08:16:59;4.50;99.90
59015;DHT22;44799;53.382;14.666;2023-04-03T08:19:26;4.40;99.90
59015;DHT22;44799;53.382;14.666;2023-04-03T08:21:52;2.20;99.90
59015;DHT22;44799;53.382;14.666;2023-04-03T08:24:17;2.60;99.90
59015;DHT22;44799;53.382;14.666;2023-04-03T08:29:09;4.70;99.90
59015;DHT22;44799;53.382;14.666;2023-04-03T08:34:01;4.60;99.90
59015;DHT22;44799;53.382;14.666;2023-04-03T08:46:12;3.50;99.90
59015;DHT22;44799;53.382;14.666;2023-04-03T08:48:42;5.50;99.90
59015;DHT22;44799;53.382;14.666;2023-04-03T08:51:10;3.90;99.90
59015;DHT22;44799;53.382;14.666;2023-04-03T08:56:07;5.00;99.90
59015;DHT22;44799;53.382;14.666;2023-04-03T08:58:52;4.10;99.90
59015;DHT22;44799;53.382;14.666;2023-04-03T09:01:22;3.20;99.90
59015;DHT22;44799;53.382;14.666;2023-04-03T09:06:21;3.40;99.90
59015;DHT22;44799;53.382;14.666;2023-04-03T09:16:21;4.00;99.90
59015;DHT22;44799;53.382;14.666;2023-04-03T09:18:51;1.50;99.90
59015;DHT22;44799;53.382;14.666;2023-04-03T09:21:31;1.60;99.90
59015;DHT22;44799;53.382;14.666;2023-04-03T09:23:58;5.40;99.90
59015;DHT22;44799;53.382;14.666;2023-04-03T09:26:25;5.70;99.90
59015;DHT22;44799;53.382;14.666;2023-04-03T09:31:24;4.90;99.90
59015;DHT22;44799;53.382;14.666;2023-04-03T09:33:51;4.80;99.90
59015;DHT22;44799;53.382;14.666;2023-04-03T09:36:37;5.00;99.90
59015;DHT22;44799;53.382;14.666;2023-04-03T09:41:30;4.80;99.90
59015;DHT22;44799;53.382;14.666;2023-04-03T09:43:55;3.10;99.90
59015;DHT22;44799;53.382;14.666;2023-04-03T09:48:51;3.70;99.90
59015;DHT22;44799;53.382;14.666;2023-04-03T09:51:17;5.10;99.90
59015;DHT22;44799;53.382;14.666;2023-04-03T09:53:44;4.90;99.90
59015;DHT22;44799;53.382;14.666;2023-04-03T09:58:39;1.40;99.90
59015;DHT22;44799;53.382;14.666;2023-04-03T10:03:35;2.50;99.90
59015;DHT22;44799;53.382;14.666;2023-04-03T10:06:03;4.50;99.90
59015;DHT22;44799;53.382;14.666;2023-04-03T10:08:33;4.60;99.90
59015;DHT22;44799;53.382;14.666;2023-04-03T10:11:07;3.50;99.90
59015;DHT22;44799;53.382;14.666;2023-04-03T10:13:33;3.60;99.90
59015;DHT22;44799;53.382;14.666;2023-04-03T10:16:01;4.20;99.90
59015;DHT22;44799;53.382;14.666;2023-04-03T10:31:26;5.40;99.90
59015;DHT22;44799;53.382;14.666;2023-04-03T10:36:27;3.50;99.90
59015;DHT22;44799;53.382;14.666;2023-04-03T10:41:39;3.50;99.90
59015;DHT22;44799;53.382;14.666;2023-04-03T10:47:08;4.00;99.90
59015;DHT22;44799;53.382;14.666;2023-04-03T10:52:13;5.40;99.90
59015;DHT22;44799;53.382;14.666;2023-04-03T10:54:41;4.20;99.90
59015;DHT22;44799;53.382;14.666;2023-04-03T10:57:10;4.80;99.90
59015;DHT22;44799;53.382;14.666;2023-04-03T11:04:48;5.90;99.90
59015;DHT22;44799;53.382;14.666;2023-04-03T11:09:43;2.40;99.90
59015;DHT22;44799;53.382;14.666;2023-04-03T11:14:36;5.40;99.90
59015;DHT22;44799;53.382;14.666;2023-04-03T11:17:11;4.60;99.90
59015;DHT22;44799;53.382;14.666;2023-04-03T11:25:04;6.00;99.90
59015;DHT22;44799;53.382;14.666;2023-04-03T11:27:38;1.40;99.90
59015;DHT22;44799;53.382;14.666;2023-04-03T11:30:06;4.00;99.90
59015;DHT22;44799;53.382;14.666;2023-04-03T11:35:28;4.80;99.90
59015;DHT22;44799;53.382;14.666;2023-04-03T11:37:54;5.70;99.90
59015;DHT22;44799;53.382;14.666;2023-04-03T11:42:46;1.60;99.90
59015;DHT22;44799;53.382;14.666;2023-04-03T11:47:54;1.70;99.90
59015;DHT22;44799;53.382;14.666;2023-04-03T11:52:54;5.70;99.90
59015;DHT22;44799;53.382;14.666;2023-04-03T11:58:11;5.80;99.90
59015;DHT22;44799;53.382;14.666;2023-04-03T12:03:01;5.60;99.90
59015;DHT22;44799;53.382;14.666;2023-04-03T12:05:28;5.00;99.90
59015;DHT22;44799;53.382;14.666;2023-04-03T12:10:38;6.10;99.90
59015;DHT22;44799;53.382;14.666;2023-04-03T12:18:30;5.60;99.90
59015;DHT22;44799;53.382;14.666;2023-04-03T12:20:56;5.50;99.90
59015;DHT22;44799;53.382;14.666;2023-04-03T12:25:50;5.00;99.90
59015;DHT22;44799;53.382;14.666;2023-04-03T12:28:16;2.70;99.90
59015;DHT22;44799;53.382;14.666;2023-04-03T12:30:41;5.30;99.90
59015;DHT22;44799;53.382;14.666;2023-04-03T12:50:34;4.90;99.90
59015;DHT22;44799;53.382;14.666;2023-04-03T12:53:01;5.10;99.90
59015;DHT22;44799;53.382;14.666;2023-04-03T12:55:29;2.30;99.90
59015;DHT22;44799;53.382;14.666;2023-04-03T12:57:55;2.80;99.90
59015;DHT22;44799;53.382;14.666;2023-04-03T13:02:47;4.00;99.90
59015;DHT22;44799;53.382;14.666;2023-04-03T13:07:39;5.30;99.90
59015;DHT22;44799;53.382;14.666;2023-04-03T13:12:32;6.60;99.90
59015;DHT22;44799;53.382;14.666;2023-04-03T13:15:00;3.80;99.90
59015;DHT22;44799;53.382;14.666;2023-04-03T13:17:26;6.40;99.90
59015;DHT22;44799;53.382;14.666;2023-04-03T13:19:53;6.30;99.90
59015;DHT22;44799;53.382;14.666;2023-04-03T13:22:26;5.30;99.90
59015;DHT22;44799;53.382;14.666;2023-04-03T13:24:54;3.20;99.90
59015;DHT22;44799;53.382;14.666;2023-04-03T13:27:20;4.50;99.90
59015;DHT22;44799;53.382;14.666;2023-04-03T13:29:49;5.20;99.90
59015;DHT22;44799;53.382;14.666;2023-04-03T13:32:20;4.50;99.90
59015;DHT22;44799;53.382;14.666;2023-04-03T13:37:20;6.20;99.90
59015;DHT22;44799;53.382;14.666;2023-04-03T13:39:55;2.90;99.80
59015;DHT22;44799;53.382;14.666;2023-04-03T13:44:48;5.00;98.40
59015;DHT22;44799;53.382;14.666;2023-04-03T13:50:25;4.80;95.30
59015;DHT22;44799;53.382;14.666;2023-04-03T13:52:31;6.40;97.20
59015;DHT22;44799;53.382;14.666;2023-04-03T13:57:48;3.40;96.40
59015;DHT22;44799;53.382;14.666;2023-04-03T14:00:22;6.00;96.80
59015;DHT22;44799;53.382;14.666;2023-04-03T14:02:53;6.70;96.50
59015;DHT22;44799;53.382;14.666;2023-04-03T14:05:20;5.40;93.50
59015;DHT22;44799;53.382;14.666;2023-04-03T14:07:46;3.50;94.80
59015;DHT22;44799;53.382;14.666;2023-04-03T14:10:12;6.90;97.00
59015;DHT22;44799;53.382;14.666;2023-04-03T14:12:38;3.80;95.70
59015;DHT22;44799;53.382;14.666;2023-04-03T14:15:18;7.20;95.30
59015;DHT22;44799;53.382;14.666;2023-04-03T14:20:14;7.70;94.00
59015;DHT22;44799;53.382;14.666;2023-04-03T14:22:40;6.70;90.90
59015;DHT22;44799;53.382;14.666;2023-04-03T14:27:42;7.60;97.90
59015;DHT22;44799;53.382;14.666;2023-04-03T14:30:09;4.80;97.80
59015;DHT22;44799;53.382;14.666;2023-04-03T14:35:03;7.00;99.10
59015;DHT22;44799;53.382;14.666;2023-04-03T14:37:30;6.10;99.30
59015;DHT22;44799;53.382;14.666;2023-04-03T14:39:56;6.70;98.60
59015;DHT22;44799;53.382;14.666;2023-04-03T14:42:23;2.50;98.30
59015;DHT22;44799;53.382;14.666;2023-04-03T14:47:17;4.80;99.50
59015;DHT22;44799;53.382;14.666;2023-04-03T14:52:20;6.20;99.50
59015;DHT22;44799;53.382;14.666;2023-04-03T14:54:47;6.00;98.60
59015;DHT22;44799;53.382;14.666;2023-04-03T14:57:14;6.70;99.40
59015;DHT22;44799;53.382;14.666;2023-04-03T14:59:40;6.10;98.80
59015;DHT22;44799;53.382;14.666;2023-04-03T15:02:12;5.30;96.20
59015;DHT22;44799;53.382;14.666;2023-04-03T15:07:11;5.10;98.00
59015;DHT22;44799;53.382;14.666;2023-04-03T15:09:37;4.90;98.60
59015;DHT22;44799;53.382;14.666;2023-04-03T15:12:02;5.50;99.50
59015;DHT22;44799;53.382;14.666;2023-04-03T15:16:54;2.70;99.00
59015;DHT22;44799;53.382;14.666;2023-04-03T15:21:46;6.10;99.90
59015;DHT22;44799;53.382;14.666;2023-04-03T15:24:11;5.30;99.90
59015;DHT22;44799;53.382;14.666;2023-04-03T15:26:37;5.90;99.90
59015;DHT22;44799;53.382;14.666;2023-04-03T15:29:03;5.50;99.20
59015;DHT22;44799;53.382;14.666;2023-04-03T15:31:29;6.10;98.40
59015;DHT22;44799;53.382;14.666;2023-04-03T15:36:20;5.90;96.00
59015;DHT22;44799;53.382;14.666;2023-04-03T15:38:46;6.50;98.40
59015;DHT22;44799;53.382;14.666;2023-04-03T15:41:12;4.60;98.40
59015;DHT22;44799;53.382;14.666;2023-04-03T15:43:38;5.80;98.90
59015;DHT22;44799;53.382;14.666;2023-04-03T15:46:03;4.70;98.20
59015;DHT22;44799;53.382;14.666;2023-04-03T15:48:29;6.00;99.70
59015;DHT22;44799;53.382;14.666;2023-04-03T15:53:21;6.30;99.90
59015;DHT22;44799;53.382;14.666;2023-04-03T15:55:47;6.30;99.90
59015;DHT22;44799;53.382;14.666;2023-04-03T16:00:39;6.20;99.90
59015;DHT22;44799;53.382;14.666;2023-04-03T16:05:31;5.40;99.90
59015;DHT22;44799;53.382;14.666;2023-04-03T16:07:57;7.70;99.90
59015;DHT22;44799;53.382;14.666;2023-04-03T16:10:23;2.70;99.20
59015;DHT22;44799;53.382;14.666;2023-04-03T16:12:48;6.30;99.90
59015;DHT22;44799;53.382;14.666;2023-04-03T16:15:14;2.10;99.90
59015;DHT22;44799;53.382;14.666;2023-04-03T16:17:40;5.30;99.90
59015;DHT22;44799;53.382;14.666;2023-04-03T16:20:08;1.80;99.90
59015;DHT22;44799;53.382;14.666;2023-04-03T16:22:35;3.80;99.90
59015;DHT22;44799;53.382;14.666;2023-04-03T16:25:01;5.20;99.90
59015;DHT22;44799;53.382;14.666;2023-04-03T16:27:27;5.90;99.90
59015;DHT22;44799;53.382;14.666;2023-04-03T16:29:57;5.80;99.90
59015;DHT22;44799;53.382;14.666;2023-04-03T16:32:23;5.70;99.90
59015;DHT22;44799;53.382;14.666;2023-04-03T16:34:49;4.20;99.90
59015;DHT22;44799;53.382;14.666;2023-04-03T16:37:15;6.20;99.90
59015;DHT22;44799;53.382;14.666;2023-04-03T16:42:07;5.60;99.90
59015;DHT22;44799;53.382;14.666;2023-04-03T16:44:34;4.20;99.90
59015;DHT22;44799;53.382;14.666;2023-04-03T16:49:26;3.70;99.90
59015;DHT22;44799;53.382;14.666;2023-04-03T16:54:23;2.20;99.90
59015;DHT22;44799;53.382;14.666;2023-04-03T16:56:48;3.60;99.90
59015;DHT22;44799;53.382;14.666;2023-04-03T16:59:14;3.00;99.90
59015;DHT22;44799;53.382;14.666;2023-04-03T17:01:40;3.30;99.90
59015;DHT22;44799;53.382;14.666;2023-04-03T17:04:05;4.20;99.90
59015;DHT22;44799;53.382;14.666;2023-04-03T17:06:31;4.90;99.90
59015;DHT22;44799;53.382;14.666;2023-04-03T17:08:57;5.10;99.90
59015;DHT22;44799;53.382;14.666;2023-04-03T17:11:22;2.70;99.90
59015;DHT22;44799;53.382;14.666;2023-04-03T17:13:48;3.80;99.90
59015;DHT22;44799;53.382;14.666;2023-04-03T17:16:14;5.00;99.90
59015;DHT22;44799;53.382;14.666;2023-04-03T17:18:40;3.80;99.90
59015;DHT22;44799;53.382;14.666;2023-04-03T17:21:06;3.50;99.90
59015;DHT22;44799;53.382;14.666;2023-04-03T17:23:33;4.50;99.90
59015;DHT22;44799;53.382;14.666;2023-04-03T17:26:00;3.20;99.90
59015;DHT22;44799;53.382;14.666;2023-04-03T17:28:26;3.70;99.90
59015;DHT22;44799;53.382;14.666;2023-04-03T17:30:55;3.80;99.90
59015;DHT22;44799;53.382;14.666;2023-04-03T17:33:21;4.50;99.90
59015;DHT22;44799;53.382;14.666;2023-04-03T17:35:47;3.50;99.90
59015;DHT22;44799;53.382;14.666;2023-04-03T17:43:04;2.50;99.90
59015;DHT22;44799;53.382;14.666;2023-04-03T17:47:56;0.90;99.90
59015;DHT22;44799;53.382;14.666;2023-04-03T17:55:14;1.50;99.90
59015;DHT22;44799;53.382;14.666;2023-04-03T17:57:42;1.90;99.90
59015;DHT22;44799;53.382;14.666;2023-04-03T18:00:07;3.70;99.90
59015;DHT22;44799;53.382;14.666;2023-04-03T18:02:34;4.20;99.90
59015;DHT22;44799;53.382;14.666;2023-04-03T18:05:00;2.90;99.90
59015;DHT22;44799;53.382;14.666;2023-04-03T18:07:26;4.20;99.90
59015;DHT22;44799;53.382;14.666;2023-04-03T18:12:18;0.20;99.90
59015;DHT22;44799;53.382;14.666;2023-04-03T18:14:43;2.50;99.90
59015;DHT22;44799;53.382;14.666;2023-04-03T18:17:09;1.60;99.90
59015;DHT22;44799;53.382;14.666;2023-04-03T18:19:35;2.40;99.90
59015;DHT22;44799;53.382;14.666;2023-04-03T18:22:02;3.70;99.90
59015;DHT22;44799;53.382;14.666;2023-04-03T18:24:30;3.30;99.90
59015;DHT22;44799;53.382;14.666;2023-04-03T18:26:57;3.20;99.90
59015;DHT22;44799;53.382;14.666;2023-04-03T18:29:24;1.70;99.90
59015;DHT22;44799;53.382;14.666;2023-04-03T18:31:51;3.00;99.90
59015;DHT22;44799;53.382;14.666;2023-04-03T18:34:18;2.50;99.90
59015;DHT22;44799;53.382;14.666;2023-04-03T18:39:10;1.80;99.90
59015;DHT22;44799;53.382;14.666;2023-04-03T18:41:36;3.50;99.90
59015;DHT22;44799;53.382;14.666;2023-04-03T18:44:02;2.50;99.90
59015;DHT22;44799;53.382;14.666;2023-04-03T18:48:54;3.30;99.90
59015;DHT22;44799;53.382;14.666;2023-04-03T18:51:20;0.20;99.90
59015;DHT22;44799;53.382;14.666;2023-04-03T18:53:46;1.30;99.90
59015;DHT22;44799;53.382;14.666;2023-04-03T18:56:11;1.60;99.90
59015;DHT22;44799;53.382;14.666;2023-04-03T18:58:37;-0.50;99.90
59015;DHT22;44799;53.382;14.666;2023-04-03T19:01:03;2.20;99.90
59015;DHT22;44799;53.382;14.666;2023-04-03T19:05:55;2.20;99.90
59015;DHT22;44799;53.382;14.666;2023-04-03T19:10:47;2.00;99.90
59015;DHT22;44799;53.382;14.666;2023-04-03T19:15:39;1.10;99.90
59015;DHT22;44799;53.382;14.666;2023-04-03T19:18:05;2.70;99.90
59015;DHT22;44799;53.382;14.666;2023-04-03T19:20:31;2.60;99.90
59015;DHT22;44799;53.382;14.666;2023-04-03T19:22:57;2.10;99.90
59015;DHT22;44799;53.382;14.666;2023-04-03T19:25:22;0.30;99.90
59015;DHT22;44799;53.382;14.666;2023-04-03T19:30:14;-1.30;99.90
59015;DHT22;44799;53.382;14.666;2023-04-03T19:32:40;1.90;99.90
59015;DHT22;44799;53.382;14.666;2023-04-03T19:35:06;2.70;99.90
59015;DHT22;44799;53.382;14.666;2023-04-03T19:37:32;1.30;99.90
59015;DHT22;44799;53.382;14.666;2023-04-03T19:39:58;2.80;99.90
59015;DHT22;44799;53.382;14.666;2023-04-03T19:42:26;-0.70;99.90
59015;DHT22;44799;53.382;14.666;2023-04-03T19:47:18;-0.30;99.90
59015;DHT22;44799;53.382;14.666;2023-04-03T19:49:46;0.50;99.90
59015;DHT22;44799;53.382;14.666;2023-04-03T19:52:12;1.30;99.90
59015;DHT22;44799;53.382;14.666;2023-04-03T19:54:37;-0.30;99.90
59015;DHT22;44799;53.382;14.666;2023-04-03T19:57:03;2.20;99.90
59015;DHT22;44799;53.382;14.666;2023-04-03T19:59:29;2.70;99.90
59015;DHT22;44799;53.382;14.666;2023-04-03T20:01:55;1.30;99.90
59015;DHT22;44799;53.382;14.666;2023-04-03T20:04:22;1.70;99.90
59015;DHT22;44799;53.382;14.666;2023-04-03T20:06:47;-0.30;99.90
59015;DHT22;44799;53.382;14.666;2023-04-03T20:09:15;2.50;99.90
59015;DHT22;44799;53.382;14.666;2023-04-03T20:11:42;2.60;99.90
59015;DHT22;44799;53.382;14.666;2023-04-03T20:16:37;-1.20;99.90
59015;DHT22;44799;53.382;14.666;2023-04-03T20:21:31;0.90;99.90
59015;DHT22;44799;53.382;14.666;2023-04-03T20:24:01;2.00;99.90
59015;DHT22;44799;53.382;14.666;2023-04-03T20:28:53;2.70;99.90
59015;DHT22;44799;53.382;14.666;2023-04-03T20:31:20;2.20;99.90
59015;DHT22;44799;53.382;14.666;2023-04-03T20:33:45;2.10;99.90